sensor_id;sensor_type;location;lat;lon;timestamp;P1;durP1;ratioP1;P2;durP2;ratioP2
37284;SDS011;23172;53.550;9.964;2023-02-03T00:01:25;6.00;;;5.40;;
37284;SDS011;23172;53.550;9.964;2023-02-03T00:06:28;11.05;;;8.25;;
37284;SDS011;23172;53.550;9.964;2023-02-03T00:11:32;10.10;;;7.70;;
37284;SDS011;23172;53.550;9.964;2023-02-03T00:16:34;8.35;;;7.15;;
37284;SDS011;23172;53.550;9.964;2023-02-03T00:21:37;10.85;;;9.00;;
37284;SDS011;23172;53.550;9.964;2023-02-03T00:26:39;10.55;;;9.18;;
37284;SDS011;23172;53.550;9.964;2023-02-03T00:31:42;9.70;;;7.65;;
37284;SDS011;23172;53.550;9.964;2023-02-03T00:36:45;9.20;;;7.50;;
37284;SDS011;23172;53.550;9.964;2023-02-03T00:41:48;11.02;;;9.20;;
37284;SDS011;23172;53.550;9.964;2023-02-03T00:46:50;16.30;;;11.73;;
37284;SDS011;23172;53.550;9.964;2023-02-03T00:51:53;12.45;;;9.88;;
37284;SDS011;23172;53.550;9.964;2023-02-03T00:56:55;11.40;;;8.57;;
37284;SDS011;23172;53.550;9.964;2023-02-03T01:01:57;11.40;;;9.57;;
37284;SDS011;23172;53.550;9.964;2023-02-03T01:07:00;11.80;;;8.05;;
37284;SDS011;23172;53.550;9.964;2023-02-03T01:12:02;12.95;;;8.88;;
37284;SDS011;23172;53.550;9.964;2023-02-03T01:17:04;10.73;;;7.78;;
37284;SDS011;23172;53.550;9.964;2023-02-03T01:22:07;7.20;;;6.05;;
37284;SDS011;23172;53.550;9.964;2023-02-03T01:27:09;13.68;;;8.98;;
37284;SDS011;23172;53.550;9.964;2023-02-03T01:32:10;11.18;;;7.22;;
37284;SDS011;23172;53.550;9.964;2023-02-03T01:37:14;12.32;;;8.00;;
37284;SDS011;23172;53.550;9.964;2023-02-03T01:42:17;10.23;;;7.13;;
37284;SDS011;23172;53.550;9.964;2023-02-03T01:47:23;11.93;;;8.88;;
37284;SDS011;23172;53.550;9.964;2023-02-03T01:52:30;17.27;;;10.48;;
37284;SDS011;23172;53.550;9.964;2023-02-03T01:57:35;11.73;;;8.30;;
37284;SDS011;23172;53.550;9.964;2023-02-03T02:02:40;20.50;;;16.88;;
37284;SDS011;23172;53.550;9.964;2023-02-03T02:07:46;15.50;;;10.20;;
37284;SDS011;23172;53.550;9.964;2023-02-03T02:12:48;11.52;;;8.98;;
37284;SDS011;23172;53.550;9.964;2023-02-03T02:17:53;11.43;;;7.70;;
37284;SDS011;23172;53.550;9.964;2023-02-03T02:23:16;11.30;;;7.53;;
37284;SDS011;23172;53.550;9.964;2023-02-03T02:28:52;10.73;;;6.70;;
37284;SDS011;23172;53.550;9.964;2023-02-03T02:34:10;10.88;;;6.25;;
37284;SDS011;23172;53.550;9.964;2023-02-03T02:39:20;14.10;;;7.95;;
37284;SDS011;23172;53.550;9.964;2023-02-03T02:44:27;9.65;;;6.20;;
37284;SDS011;23172;53.550;9.964;2023-02-03T02:49:37;9.20;;;6.60;;
37284;SDS011;23172;53.550;9.964;2023-02-03T02:54:44;8.95;;;6.10;;
37284;SDS011;23172;53.550;9.964;2023-02-03T02:59:49;9.23;;;5.70;;
37284;SDS011;23172;53.550;9.964;2023-02-03T03:04:53;8.77;;;6.07;;
37284;SDS011;23172;53.550;9.964;2023-02-03T03:09:55;7.40;;;5.22;;
37284;SDS011;23172;53.550;9.964;2023-02-03T03:15:02;6.05;;;5.40;;
37284;SDS011;23172;53.550;9.964;2023-02-03T03:20:10;6.88;;;5.03;;
37284;SDS011;23172;53.550;9.964;2023-02-03T03:25:16;7.55;;;3.95;;
37284;SDS011;23172;53.550;9.964;2023-02-03T03:30:21;10.75;;;5.50;;
37284;SDS011;23172;53.550;9.964;2023-02-03T03:35:27;8.75;;;3.92;;
37284;SDS011;23172;53.550;9.964;2023-02-03T03:40:37;7.30;;;3.50;;
37284;SDS011;23172;53.550;9.964;2023-02-03T03:45:42;6.70;;;2.95;;
37284;SDS011;23172;53.550;9.964;2023-02-03T03:50:50;5.93;;;3.10;;
37284;SDS011;23172;53.550;9.964;2023-02-03T03:55:56;7.20;;;3.72;;
37284;SDS011;23172;53.550;9.964;2023-02-03T04:01:02;9.82;;;3.83;;
37284;SDS011;23172;53.550;9.964;2023-02-03T04:06:08;7.57;;;4.10;;
37284;SDS011;23172;53.550;9.964;2023-02-03T04:11:10;8.32;;;3.20;;
37284;SDS011;23172;53.550;9.964;2023-02-03T04:16:32;6.03;;;3.42;;
37284;SDS011;23172;53.550;9.964;2023-02-03T04:21:35;5.72;;;3.35;;
37284;SDS011;23172;53.550;9.964;2023-02-03T04:26:36;4.68;;;2.90;;
37284;SDS011;23172;53.550;9.964;2023-02-03T04:31:38;5.47;;;3.17;;
37284;SDS011;23172;53.550;9.964;2023-02-03T04:36:42;5.57;;;3.10;;
37284;SDS011;23172;53.550;9.964;2023-02-03T04:41:43;4.35;;;3.38;;
37284;SDS011;23172;53.550;9.964;2023-02-03T04:46:45;5.05;;;3.38;;
37284;SDS011;23172;53.550;9.964;2023-02-03T04:51:48;5.30;;;3.90;;
37284;SDS011;23172;53.550;9.964;2023-02-03T04:56:50;8.82;;;3.78;;
37284;SDS011;23172;53.550;9.964;2023-02-03T05:01:52;9.55;;;5.68;;
37284;SDS011;23172;53.550;9.964;2023-02-03T05:06:55;9.77;;;4.50;;
37284;SDS011;23172;53.550;9.964;2023-02-03T05:11:57;10.88;;;4.13;;
37284;SDS011;23172;53.550;9.964;2023-02-03T05:16:59;6.47;;;4.25;;
37284;SDS011;23172;53.550;9.964;2023-02-03T05:22:02;6.03;;;3.83;;
37284;SDS011;23172;53.550;9.964;2023-02-03T05:27:04;6.85;;;4.07;;
37284;SDS011;23172;53.550;9.964;2023-02-03T05:32:06;6.82;;;4.50;;
37284;SDS011;23172;53.550;9.964;2023-02-03T05:37:09;7.90;;;4.32;;
37284;SDS011;23172;53.550;9.964;2023-02-03T05:42:11;7.32;;;4.10;;
37284;SDS011;23172;53.550;9.964;2023-02-03T05:47:13;5.15;;;3.85;;
37284;SDS011;23172;53.550;9.964;2023-02-03T05:52:16;6.63;;;3.47;;
37284;SDS011;23172;53.550;9.964;2023-02-03T05:57:18;5.53;;;3.40;;
37284;SDS011;23172;53.550;9.964;2023-02-03T06:02:20;8.82;;;3.60;;
37284;SDS011;23172;53.550;9.964;2023-02-03T06:07:23;5.05;;;3.05;;
37284;SDS011;23172;53.550;9.964;2023-02-03T06:12:25;5.22;;;3.15;;
37284;SDS011;23172;53.550;9.964;2023-02-03T06:17:27;8.48;;;3.05;;
37284;SDS011;23172;53.550;9.964;2023-02-03T06:22:30;5.05;;;3.08;;
37284;SDS011;23172;53.550;9.964;2023-02-03T06:27:32;5.47;;;2.90;;
37284;SDS011;23172;53.550;9.964;2023-02-03T06:32:34;7.05;;;3.33;;
37284;SDS011;23172;53.550;9.964;2023-02-03T06:37:37;7.88;;;3.33;;
37284;SDS011;23172;53.550;9.964;2023-02-03T06:42:43;5.95;;;3.30;;
37284;SDS011;23172;53.550;9.964;2023-02-03T06:47:45;7.38;;;3.78;;
37284;SDS011;23172;53.550;9.964;2023-02-03T06:52:49;7.97;;;4.13;;
37284;SDS011;23172;53.550;9.964;2023-02-03T06:57:51;9.57;;;4.82;;
37284;SDS011;23172;53.550;9.964;2023-02-03T07:02:53;10.50;;;4.60;;
37284;SDS011;23172;53.550;9.964;2023-02-03T07:07:56;11.35;;;4.20;;
37284;SDS011;23172;53.550;9.964;2023-02-03T07:13:02;6.90;;;3.80;;
37284;SDS011;23172;53.550;9.964;2023-02-03T07:18:04;6.95;;;3.40;;
37284;SDS011;23172;53.550;9.964;2023-02-03T07:23:07;7.72;;;3.50;;
37284;SDS011;23172;53.550;9.964;2023-02-03T07:28:10;11.27;;;4.00;;
37284;SDS011;23172;53.550;9.964;2023-02-03T07:33:11;10.40;;;3.80;;
37284;SDS011;23172;53.550;9.964;2023-02-03T07:38:15;12.77;;;3.67;;
37284;SDS011;23172;53.550;9.964;2023-02-03T07:43:16;8.73;;;3.53;;
37284;SDS011;23172;53.550;9.964;2023-02-03T07:48:18;7.70;;;3.58;;
37284;SDS011;23172;53.550;9.964;2023-02-03T07:53:21;6.47;;;3.30;;
37284;SDS011;23172;53.550;9.964;2023-02-03T07:58:23;11.57;;;3.22;;
37284;SDS011;23172;53.550;9.964;2023-02-03T08:03:25;11.35;;;3.30;;
37284;SDS011;23172;53.550;9.964;2023-02-03T08:08:29;12.57;;;3.67;;
37284;SDS011;23172;53.550;9.964;2023-02-03T08:13:31;8.57;;;2.63;;
37284;SDS011;23172;53.550;9.964;2023-02-03T08:18:33;10.05;;;2.80;;
37284;SDS011;23172;53.550;9.964;2023-02-03T08:23:36;7.30;;;2.63;;
37284;SDS011;23172;53.550;9.964;2023-02-03T08:28:38;10.55;;;2.60;;
37284;SDS011;23172;53.550;9.964;2023-02-03T08:33:40;9.75;;;2.60;;
37284;SDS011;23172;53.550;9.964;2023-02-03T08:38:44;11.85;;;3.50;;
37284;SDS011;23172;53.550;9.964;2023-02-03T08:43:46;19.65;;;4.65;;
37284;SDS011;23172;53.550;9.964;2023-02-03T08:48:48;14.27;;;3.50;;
37284;SDS011;23172;53.550;9.964;2023-02-03T08:53:53;15.95;;;3.90;;
37284;SDS011;23172;53.550;9.964;2023-02-03T08:58:55;18.65;;;3.92;;
37284;SDS011;23172;53.550;9.964;2023-02-03T09:03:56;19.17;;;4.30;;
37284;SDS011;23172;53.550;9.964;2023-02-03T09:09:02;16.05;;;4.03;;
37284;SDS011;23172;53.550;9.964;2023-02-03T09:14:04;16.80;;;4.40;;
37284;SDS011;23172;53.550;9.964;2023-02-03T09:19:06;16.75;;;4.82;;
37284;SDS011;23172;53.550;9.964;2023-02-03T09:24:09;21.33;;;4.82;;
37284;SDS011;23172;53.550;9.964;2023-02-03T09:29:11;21.05;;;4.95;;
37284;SDS011;23172;53.550;9.964;2023-02-03T09:34:13;24.95;;;6.15;;
37284;SDS011;23172;53.550;9.964;2023-02-03T09:39:16;27.08;;;6.22;;
37284;SDS011;23172;53.550;9.964;2023-02-03T09:44:19;25.23;;;5.57;;
37284;SDS011;23172;53.550;9.964;2023-02-03T09:49:36;24.15;;;5.15;;
37284;SDS011;23172;53.550;9.964;2023-02-03T09:54:42;30.13;;;6.72;;
37284;SDS011;23172;53.550;9.964;2023-02-03T09:59:50;25.70;;;6.03;;
37284;SDS011;23172;53.550;9.964;2023-02-03T10:04:55;27.88;;;6.72;;
37284;SDS011;23172;53.550;9.964;2023-02-03T10:10:04;25.10;;;6.22;;
37284;SDS011;23172;53.550;9.964;2023-02-03T10:15:17;27.83;;;6.03;;
37284;SDS011;23172;53.550;9.964;2023-02-03T10:20:39;28.23;;;7.03;;
37284;SDS011;23172;53.550;9.964;2023-02-03T10:25:48;24.73;;;6.78;;
37284;SDS011;23172;53.550;9.964;2023-02-03T10:30:55;28.13;;;7.65;;
37284;SDS011;23172;53.550;9.964;2023-02-03T10:36:00;25.38;;;6.25;;
37284;SDS011;23172;53.550;9.964;2023-02-03T10:41:09;29.70;;;6.13;;
37284;SDS011;23172;53.550;9.964;2023-02-03T10:46:11;25.67;;;6.22;;
37284;SDS011;23172;53.550;9.964;2023-02-03T10:51:15;33.85;;;8.40;;
37284;SDS011;23172;53.550;9.964;2023-02-03T10:56:23;26.13;;;7.38;;
37284;SDS011;23172;53.550;9.964;2023-02-03T11:01:27;25.15;;;8.00;;
37284;SDS011;23172;53.550;9.964;2023-02-03T11:06:42;25.33;;;6.68;;
37284;SDS011;23172;53.550;9.964;2023-02-03T11:12:05;36.50;;;9.98;;
37284;SDS011;23172;53.550;9.964;2023-02-03T11:17:14;28.02;;;7.45;;
37284;SDS011;23172;53.550;9.964;2023-02-03T11:22:27;20.23;;;6.50;;
37284;SDS011;23172;53.550;9.964;2023-02-03T11:27:32;22.75;;;7.68;;
37284;SDS011;23172;53.550;9.964;2023-02-03T11:32:34;24.23;;;7.10;;
37284;SDS011;23172;53.550;9.964;2023-02-03T11:37:38;33.10;;;9.27;;
37284;SDS011;23172;53.550;9.964;2023-02-03T11:42:43;28.45;;;6.45;;
37284;SDS011;23172;53.550;9.964;2023-02-03T11:47:46;28.15;;;8.43;;
37284;SDS011;23172;53.550;9.964;2023-02-03T11:52:58;28.92;;;8.55;;
37284;SDS011;23172;53.550;9.964;2023-02-03T11:58:22;22.05;;;7.13;;
37284;SDS011;23172;53.550;9.964;2023-02-03T12:03:57;33.10;;;9.65;;
37284;SDS011;23172;53.550;9.964;2023-02-03T12:09:23;21.98;;;6.47;;
37284;SDS011;23172;53.550;9.964;2023-02-03T12:14:39;41.35;;;16.35;;
37284;SDS011;23172;53.550;9.964;2023-02-03T12:19:57;27.10;;;8.88;;
37284;SDS011;23172;53.550;9.964;2023-02-03T12:25:20;38.70;;;15.65;;
37284;SDS011;23172;53.550;9.964;2023-02-03T12:30:33;31.23;;;10.20;;
37284;SDS011;23172;53.550;9.964;2023-02-03T12:35:41;48.05;;;18.45;;
37284;SDS011;23172;53.550;9.964;2023-02-03T12:40:49;27.95;;;10.23;;
37284;SDS011;23172;53.550;9.964;2023-02-03T12:45:55;32.72;;;10.30;;
37284;SDS011;23172;53.550;9.964;2023-02-03T12:51:02;42.00;;;14.02;;
37284;SDS011;23172;53.550;9.964;2023-02-03T12:56:08;33.30;;;9.55;;
37284;SDS011;23172;53.550;9.964;2023-02-03T13:01:17;57.33;;;15.18;;
37284;SDS011;23172;53.550;9.964;2023-02-03T13:06:23;30.10;;;10.35;;
37284;SDS011;23172;53.550;9.964;2023-02-03T13:11:32;30.40;;;13.50;;
37284;SDS011;23172;53.550;9.964;2023-02-03T13:16:43;41.38;;;16.83;;
37284;SDS011;23172;53.550;9.964;2023-02-03T13:21:52;27.65;;;12.07;;
37284;SDS011;23172;53.550;9.964;2023-02-03T13:26:59;27.98;;;9.85;;
37284;SDS011;23172;53.550;9.964;2023-02-03T13:32:18;27.08;;;9.05;;
37284;SDS011;23172;53.550;9.964;2023-02-03T13:37:40;24.17;;;7.88;;
37284;SDS011;23172;53.550;9.964;2023-02-03T13:43:10;27.15;;;10.15;;
37284;SDS011;23172;53.550;9.964;2023-02-03T13:48:16;29.52;;;11.60;;
37284;SDS011;23172;53.550;9.964;2023-02-03T13:53:22;24.50;;;9.43;;
37284;SDS011;23172;53.550;9.964;2023-02-03T13:58:28;38.65;;;14.40;;
37284;SDS011;23172;53.550;9.964;2023-02-03T14:03:42;50.97;;;26.23;;
37284;SDS011;23172;53.550;9.964;2023-02-03T14:08:47;32.17;;;13.38;;
37284;SDS011;23172;53.550;9.964;2023-02-03T14:13:50;84.82;;;20.65;;
37284;SDS011;23172;53.550;9.964;2023-02-03T14:18:54;69.97;;;21.02;;
37284;SDS011;23172;53.550;9.964;2023-02-03T14:23:57;39.55;;;16.73;;
37284;SDS011;23172;53.550;9.964;2023-02-03T14:29:03;56.97;;;21.00;;
37284;SDS011;23172;53.550;9.964;2023-02-03T14:34:09;25.55;;;12.55;;
37284;SDS011;23172;53.550;9.964;2023-02-03T14:39:22;36.08;;;14.00;;
37284;SDS011;23172;53.550;9.964;2023-02-03T14:44:58;34.78;;;12.75;;
37284;SDS011;23172;53.550;9.964;2023-02-03T14:50:15;34.92;;;10.60;;
37284;SDS011;23172;53.550;9.964;2023-02-03T14:55:33;35.38;;;13.50;;
37284;SDS011;23172;53.550;9.964;2023-02-03T15:00:39;32.95;;;11.63;;
37284;SDS011;23172;53.550;9.964;2023-02-03T15:05:43;26.60;;;10.43;;
37284;SDS011;23172;53.550;9.964;2023-02-03T15:10:46;34.80;;;12.32;;
37284;SDS011;23172;53.550;9.964;2023-02-03T15:15:48;37.58;;;15.88;;
37284;SDS011;23172;53.550;9.964;2023-02-03T15:20:54;31.33;;;10.82;;
37284;SDS011;23172;53.550;9.964;2023-02-03T15:25:56;31.90;;;9.13;;
37284;SDS011;23172;53.550;9.964;2023-02-03T15:31:00;31.98;;;10.38;;
37284;SDS011;23172;53.550;9.964;2023-02-03T15:36:08;27.65;;;9.38;;
37284;SDS011;23172;53.550;9.964;2023-02-03T15:41:17;41.65;;;12.38;;
37284;SDS011;23172;53.550;9.964;2023-02-03T15:46:25;30.52;;;11.25;;
37284;SDS011;23172;53.550;9.964;2023-02-03T15:51:34;29.77;;;10.18;;
37284;SDS011;23172;53.550;9.964;2023-02-03T15:56:43;34.60;;;9.48;;
37284;SDS011;23172;53.550;9.964;2023-02-03T16:01:53;26.60;;;7.90;;
37284;SDS011;23172;53.550;9.964;2023-02-03T16:06:56;37.17;;;10.93;;
37284;SDS011;23172;53.550;9.964;2023-02-03T16:12:16;26.05;;;8.93;;
37284;SDS011;23172;53.550;9.964;2023-02-03T16:17:24;31.55;;;8.82;;
37284;SDS011;23172;53.550;9.964;2023-02-03T16:22:30;24.05;;;8.07;;
37284;SDS011;23172;53.550;9.964;2023-02-03T16:27:36;33.83;;;9.52;;
37284;SDS011;23172;53.550;9.964;2023-02-03T16:32:38;26.92;;;7.22;;
37284;SDS011;23172;53.550;9.964;2023-02-03T16:38:04;31.83;;;8.05;;
37284;SDS011;23172;53.550;9.964;2023-02-03T16:43:24;30.00;;;8.85;;
37284;SDS011;23172;53.550;9.964;2023-02-03T16:48:44;30.20;;;7.45;;
37284;SDS011;23172;53.550;9.964;2023-02-03T16:54:05;23.08;;;7.30;;
37284;SDS011;23172;53.550;9.964;2023-02-03T16:59:07;30.85;;;6.22;;
37284;SDS011;23172;53.550;9.964;2023-02-03T17:04:09;23.05;;;6.28;;
37284;SDS011;23172;53.550;9.964;2023-02-03T17:09:13;24.10;;;5.90;;
37284;SDS011;23172;53.550;9.964;2023-02-03T17:14:16;32.10;;;6.28;;
37284;SDS011;23172;53.550;9.964;2023-02-03T17:19:17;33.50;;;6.07;;
37284;SDS011;23172;53.550;9.964;2023-02-03T17:24:20;35.63;;;8.13;;
37284;SDS011;23172;53.550;9.964;2023-02-03T17:29:23;24.20;;;6.38;;
37284;SDS011;23172;53.550;9.964;2023-02-03T17:34:25;25.30;;;6.43;;
37284;SDS011;23172;53.550;9.964;2023-02-03T17:39:28;27.10;;;6.65;;
37284;SDS011;23172;53.550;9.964;2023-02-03T17:44:32;31.40;;;8.15;;
37284;SDS011;23172;53.550;9.964;2023-02-03T17:49:34;31.35;;;6.88;;
37284;SDS011;23172;53.550;9.964;2023-02-03T17:54:37;31.58;;;6.25;;
37284;SDS011;23172;53.550;9.964;2023-02-03T17:59:39;28.02;;;6.45;;
37284;SDS011;23172;53.550;9.964;2023-02-03T18:04:41;31.00;;;7.22;;
37284;SDS011;23172;53.550;9.964;2023-02-03T18:09:44;28.13;;;7.28;;
37284;SDS011;23172;53.550;9.964;2023-02-03T18:14:46;29.73;;;6.53;;
37284;SDS011;23172;53.550;9.964;2023-02-03T18:19:48;27.27;;;6.82;;
37284;SDS011;23172;53.550;9.964;2023-02-03T18:24:51;26.50;;;6.85;;
37284;SDS011;23172;53.550;9.964;2023-02-03T18:29:54;26.42;;;5.60;;
37284;SDS011;23172;53.550;9.964;2023-02-03T18:34:56;29.08;;;5.95;;
37284;SDS011;23172;53.550;9.964;2023-02-03T18:39:59;25.17;;;6.30;;
37284;SDS011;23172;53.550;9.964;2023-02-03T18:45:01;24.15;;;5.85;;
37284;SDS011;23172;53.550;9.964;2023-02-03T18:50:05;30.20;;;6.60;;
37284;SDS011;23172;53.550;9.964;2023-02-03T18:55:09;31.83;;;7.93;;
37284;SDS011;23172;53.550;9.964;2023-02-03T19:00:12;36.42;;;9.45;;
37284;SDS011;23172;53.550;9.964;2023-02-03T19:05:15;22.73;;;6.53;;
37284;SDS011;23172;53.550;9.964;2023-02-03T19:10:18;31.33;;;9.52;;
37284;SDS011;23172;53.550;9.964;2023-02-03T19:15:20;28.75;;;6.55;;
37284;SDS011;23172;53.550;9.964;2023-02-03T19:20:22;27.77;;;7.25;;
37284;SDS011;23172;53.550;9.964;2023-02-03T19:25:25;38.78;;;10.32;;
37284;SDS011;23172;53.550;9.964;2023-02-03T19:30:27;35.20;;;7.25;;
37284;SDS011;23172;53.550;9.964;2023-02-03T19:35:29;25.35;;;6.45;;
37284;SDS011;23172;53.550;9.964;2023-02-03T19:40:33;17.90;;;5.28;;
37284;SDS011;23172;53.550;9.964;2023-02-03T19:45:35;27.63;;;6.88;;
37284;SDS011;23172;53.550;9.964;2023-02-03T19:50:37;20.02;;;6.07;;
37284;SDS011;23172;53.550;9.964;2023-02-03T19:55:46;19.20;;;5.47;;
37284;SDS011;23172;53.550;9.964;2023-02-03T20:00:48;15.15;;;4.70;;
37284;SDS011;23172;53.550;9.964;2023-02-03T20:05:49;14.27;;;4.10;;
37284;SDS011;23172;53.550;9.964;2023-02-03T20:10:53;12.23;;;3.45;;
37284;SDS011;23172;53.550;9.964;2023-02-03T20:15:55;11.88;;;2.92;;
37284;SDS011;23172;53.550;9.964;2023-02-03T20:20:57;7.45;;;3.00;;
37284;SDS011;23172;53.550;9.964;2023-02-03T20:26:01;6.38;;;2.50;;
37284;SDS011;23172;53.550;9.964;2023-02-03T20:31:03;4.63;;;1.77;;
37284;SDS011;23172;53.550;9.964;2023-02-03T20:36:05;6.65;;;2.08;;
37284;SDS011;23172;53.550;9.964;2023-02-03T20:41:09;8.48;;;2.88;;
37284;SDS011;23172;53.550;9.964;2023-02-03T20:46:12;5.45;;;2.20;;
37284;SDS011;23172;53.550;9.964;2023-02-03T20:51:16;8.88;;;1.75;;
37284;SDS011;23172;53.550;9.964;2023-02-03T20:56:21;6.10;;;1.70;;
37284;SDS011;23172;53.550;9.964;2023-02-03T21:01:23;5.88;;;2.20;;
37284;SDS011;23172;53.550;9.964;2023-02-03T21:06:26;5.38;;;2.10;;
37284;SDS011;23172;53.550;9.964;2023-02-03T21:11:30;4.82;;;2.13;;
37284;SDS011;23172;53.550;9.964;2023-02-03T21:16:33;5.47;;;2.10;;
37284;SDS011;23172;53.550;9.964;2023-02-03T21:21:38;3.40;;;2.00;;
37284;SDS011;23172;53.550;9.964;2023-02-03T21:26:42;4.32;;;1.95;;
37284;SDS011;23172;53.550;9.964;2023-02-03T21:31:44;3.30;;;2.35;;
37284;SDS011;23172;53.550;9.964;2023-02-03T21:36:46;3.38;;;2.40;;
37284;SDS011;23172;53.550;9.964;2023-02-03T21:41:49;3.13;;;1.67;;
37284;SDS011;23172;53.550;9.964;2023-02-03T21:46:51;4.68;;;2.95;;
37284;SDS011;23172;53.550;9.964;2023-02-03T21:51:53;3.55;;;2.00;;
37284;SDS011;23172;53.550;9.964;2023-02-03T21:56:56;3.38;;;1.85;;
37284;SDS011;23172;53.550;9.964;2023-02-03T22:01:59;3.10;;;1.50;;
37284;SDS011;23172;53.550;9.964;2023-02-03T22:07:04;3.30;;;1.80;;
37284;SDS011;23172;53.550;9.964;2023-02-03T22:12:16;3.28;;;2.00;;
37284;SDS011;23172;53.550;9.964;2023-02-03T22:17:18;2.08;;;1.50;;
37284;SDS011;23172;53.550;9.964;2023-02-03T22:22:20;3.67;;;2.10;;
37284;SDS011;23172;53.550;9.964;2023-02-03T22:27:23;1.83;;;1.50;;
37284;SDS011;23172;53.550;9.964;2023-02-03T22:32:25;2.38;;;1.60;;
37284;SDS011;23172;53.550;9.964;2023-02-03T22:37:27;1.63;;;1.20;;
37284;SDS011;23172;53.550;9.964;2023-02-03T22:42:32;1.85;;;1.20;;
37284;SDS011;23172;53.550;9.964;2023-02-03T22:47:34;2.92;;;2.20;;
37284;SDS011;23172;53.550;9.964;2023-02-03T22:52:36;3.05;;;1.52;;
37284;SDS011;23172;53.550;9.964;2023-02-03T22:57:39;4.38;;;1.80;;
37284;SDS011;23172;53.550;9.964;2023-02-03T23:02:41;3.80;;;2.30;;
37284;SDS011;23172;53.550;9.964;2023-02-03T23:07:43;5.60;;;3.15;;
37284;SDS011;23172;53.550;9.964;2023-02-03T23:12:47;3.97;;;2.50;;
37284;SDS011;23172;53.550;9.964;2023-02-03T23:17:50;4.82;;;2.50;;
37284;SDS011;23172;53.550;9.964;2023-02-03T23:22:51;3.95;;;2.10;;
37284;SDS011;23172;53.550;9.964;2023-02-03T23:27:55;2.90;;;1.88;;
37284;SDS011;23172;53.550;9.964;2023-02-03T23:32:57;2.72;;;1.35;;
37284;SDS011;23172;53.550;9.964;2023-02-03T23:37:58;1.70;;;1.60;;
37284;SDS011;23172;53.550;9.964;2023-02-03T23:43:02;3.72;;;2.45;;
37284;SDS011;23172;53.550;9.964;2023-02-03T23:48:04;1.73;;;1.40;;
37284;SDS011;23172;53.550;9.964;2023-02-03T23:53:06;1.75;;;1.60;;
37284;SDS011;23172;53.550;9.964;2023-02-03T23:58:09;3.92;;;1.73;;
